Newport Municipal Airport
KONP : now visible

Airfield :











YOU CAN JOIN US ON...

 
LOGIN :

Register | Disclaimer

   EN    FR    IT 

 









Legend :    VFR   Marginal VFR   IFR   Intensive IFR   Very Intensive IFR
Visi :
Ceiling :
>= 8 km
>= 3000ft
5 to 8 km
1000 to 3000 ft
1500m to 5 km
500 to 1000 ft
800 to 1500m
200 to 500 ft
< 800m
< 200 ft
Symbols :   Thunderstorms  Fog  Heavy snow  Heavy precipitations  Wind > 20 kt






- Airport Elevation : 160 ft


KONP - Newport Municipal

CURRENT METAR :
  • 211335Z AUTO 20007KT 5SM BR OVC003 12/12 A3029 RMK AO2

EXPIRED METARs :
  • 211315Z AUTO 19009KT 5SM BR OVC003 12/12 A3028 RMK AO2
  • 211255Z AUTO 19008KT 2 1/2SM BR OVC003 12/12 A3028 RMK AO2
  • 211235Z AUTO 20008KT 4SM BR OVC003 12/12 A3028 RMK AO2
  • 211215Z AUTO 20008KT 4SM BR OVC003 12/12 A3027 RMK AO2
  • 211155Z AUTO 20008KT 4SM BR OVC003 12/12 A3027 RMK AO2
  • 211135Z AUTO 19009KT 2 1/2SM BR OVC003 12/12 A3026 RMK AO2
  • 211115Z AUTO 20009KT 3SM BR OVC003 12/12 A3027 RMK AO2
  • 211055Z AUTO 20011KT 1 1/2SM BR OVC003 12/12 A3026 RMK AO2

TAF KONP
Valid from the 21 at 12:00 until the 22 at 12:00 UTC


211135Z 2112/2212 19006KT 2SM BR OVC003
FM211700 19010KT 3SM -RA BR SCT003 OVC007
FM212100 18015G25KT 2SM -RA BR OVC005
FM220400 20007KT 1SM -RA BR OVC003



MET'MAP, your aeronautical weather chart ! - Copyright ORBIFLY December 2007 - Disclaimer

ORBIFLY MET'MAP TEAM :

Programming & Development : Alexandra Zaïnal
Concept & Development : Baudouin d'Aumeries
Co-Development & Prog : Marc-Olivier Méhu
Technical & hardware support : Manuel Goepfert

Contact : metmap@orbifly.com




SOURCES & CREDITS :

   NOAA       Earth
Advisory